createdAt,value
2022-11-24T00:00:29.513Z,51.323448
2022-11-24T00:01:29.491Z,51.323433
2022-11-24T00:02:29.622Z,51.323467
2022-11-24T00:03:29.508Z,51.323452
2022-11-24T00:04:29.463Z,51.323414
2022-11-24T00:05:29.415Z,51.323425
2022-11-24T00:06:29.395Z,51.323441
2022-11-24T00:07:29.523Z,51.323402
2022-11-24T00:08:29.364Z,51.323429
2022-11-24T00:09:29.371Z,51.323425
2022-11-24T00:10:29.323Z,51.323376
2022-11-24T00:11:29.318Z,51.323433
2022-11-24T00:12:29.290Z,51.323486
2022-11-24T00:13:29.280Z,51.323429
2022-11-24T00:14:29.278Z,51.323452
2022-11-24T00:15:29.248Z,51.323475
2022-11-24T00:16:29.276Z,51.323444
2022-11-24T00:17:29.194Z,51.323437
2022-11-24T00:18:29.174Z,51.323448
2022-11-24T00:19:29.214Z,51.323460
2022-11-24T00:20:29.137Z,51.323421
2022-11-24T00:21:29.122Z,51.323414
2022-11-24T00:22:29.127Z,51.323418
2022-11-24T00:23:29.126Z,51.323421
2022-11-24T00:24:29.092Z,51.323502
2022-11-24T00:25:29.050Z,51.323494
2022-11-24T00:26:29.018Z,51.323433
2022-11-24T00:27:30.016Z,51.323433
2022-11-24T00:28:28.993Z,51.323460
2022-11-24T00:29:29.008Z,51.323475
2022-11-24T00:30:29.014Z,51.323433
2022-11-24T00:31:28.983Z,51.323433
2022-11-24T00:32:28.913Z,51.323502
2022-11-24T00:33:28.920Z,51.323479
2022-11-24T00:34:28.911Z,51.323421
2022-11-24T00:35:28.869Z,51.323452
2022-11-24T00:36:28.847Z,51.323460
2022-11-24T00:37:28.824Z,51.323452
2022-11-24T00:38:28.806Z,51.323452
2022-11-24T00:39:28.816Z,51.323463
2022-11-24T00:40:34.727Z,51.323486
2022-11-24T00:41:30.748Z,51.323429
2022-11-24T00:42:28.736Z,51.323498
2022-11-24T00:43:28.723Z,51.323505
2022-11-24T00:44:28.716Z,51.323479
2022-11-24T00:45:28.701Z,51.323425
2022-11-24T00:46:28.854Z,51.323437
2022-11-24T00:47:28.663Z,51.323456
2022-11-24T00:48:28.626Z,51.323444
2022-11-24T00:49:28.631Z,51.323486
2022-11-24T00:50:28.583Z,51.323437
2022-11-24T00:51:28.580Z,51.323467
2022-11-24T00:52:28.550Z,51.323471
2022-11-24T00:53:28.533Z,51.323463
2022-11-24T00:54:28.535Z,51.323471
2022-11-24T00:55:28.509Z,51.323444
2022-11-24T00:56:28.480Z,51.323471
2022-11-24T00:57:28.459Z,51.323441
2022-11-24T00:58:28.439Z,51.323414
2022-11-24T00:59:28.451Z,51.323460
2022-11-24T01:00:28.404Z,51.323448
2022-11-24T01:01:28.477Z,51.323444
2022-11-24T01:02:28.385Z,51.323460
2022-11-24T01:03:28.370Z,51.323448
2022-11-24T01:04:28.358Z,51.323467
2022-11-24T01:05:28.343Z,51.323463
2022-11-24T01:06:28.306Z,51.323467
2022-11-24T01:07:28.347Z,51.323456
2022-11-24T01:08:28.282Z,51.323460
2022-11-24T01:09:28.268Z,51.323463
2022-11-24T01:10:28.229Z,51.323433
2022-11-24T01:11:28.210Z,51.323418
2022-11-24T01:12:28.184Z,51.323406
2022-11-24T01:13:28.172Z,51.323421
2022-11-24T01:14:28.176Z,51.323414
2022-11-24T01:15:28.233Z,51.323410
2022-11-24T01:16:28.151Z,51.323402
2022-11-24T01:17:28.096Z,51.323402
2022-11-24T01:18:28.082Z,51.323418
2022-11-24T01:19:28.090Z,51.323402
2022-11-24T01:20:28.050Z,51.323372
2022-11-24T01:21:28.035Z,51.323410
2022-11-24T01:22:28.017Z,51.323433
2022-11-24T01:23:28.000Z,51.323418
2022-11-24T01:24:27.994Z,51.323444
2022-11-24T01:25:27.965Z,51.323437
2022-11-24T01:26:27.945Z,51.323437
2022-11-24T01:27:27.924Z,51.323463
2022-11-24T01:28:27.905Z,51.323433
2022-11-24T01:29:27.919Z,51.323441
2022-11-24T01:30:27.871Z,51.323418
2022-11-24T01:31:27.899Z,51.323414
2022-11-24T01:32:27.836Z,51.323425
2022-11-24T01:33:27.820Z,51.323425
2022-11-24T01:34:27.829Z,51.323444
2022-11-24T01:35:27.796Z,51.323433
2022-11-24T01:36:27.767Z,51.323414
2022-11-24T01:37:27.752Z,51.323429
2022-11-24T01:38:27.732Z,51.323429
2022-11-24T01:39:27.747Z,51.323421
2022-11-24T01:40:27.701Z,51.323429
2022-11-24T01:41:27.673Z,51.323437
2022-11-24T01:42:27.661Z,51.323410
2022-11-24T01:43:27.636Z,51.323421
2022-11-24T01:44:27.648Z,51.323463
2022-11-24T01:45:27.607Z,51.323429
2022-11-24T01:46:27.629Z,51.323399
2022-11-24T01:47:27.565Z,51.323429
2022-11-24T01:48:27.963Z,51.323399
2022-11-24T01:49:27.560Z,51.323406
2022-11-24T01:50:27.511Z,51.323406
2022-11-24T01:51:27.491Z,51.323406
2022-11-24T01:52:27.485Z,51.323380
2022-11-24T01:53:27.478Z,51.323383
2022-11-24T01:54:27.461Z,51.323414
2022-11-24T01:55:27.420Z,51.323410
2022-11-24T01:56:27.404Z,51.323376
2022-11-24T01:57:27.391Z,51.323410
2022-11-24T01:58:27.359Z,51.323425
2022-11-24T01:59:27.386Z,51.323425
2022-11-24T02:00:27.321Z,51.323441
2022-11-24T02:01:27.346Z,51.323414
2022-11-24T02:02:27.381Z,51.323418
2022-11-24T02:03:27.356Z,51.323418
2022-11-24T02:04:27.285Z,51.323410
2022-11-24T02:05:27.248Z,51.323414
2022-11-24T02:06:27.208Z,51.323421
2022-11-24T02:07:27.219Z,51.323414
2022-11-24T02:08:27.176Z,51.323399
2022-11-24T02:09:27.196Z,51.323425
2022-11-24T02:10:27.140Z,51.323395
2022-11-24T02:11:27.122Z,51.323383
2022-11-24T02:12:27.098Z,51.323387
2022-11-24T02:13:27.086Z,51.323391
2022-11-24T02:14:27.097Z,51.323380
2022-11-24T02:15:27.054Z,51.323391
2022-11-24T02:16:27.077Z,51.323414
2022-11-24T02:17:27.014Z,51.323380
2022-11-24T02:18:26.997Z,51.323376
2022-11-24T02:19:26.991Z,51.323418
2022-11-24T02:20:26.948Z,51.323410
2022-11-24T02:21:26.931Z,51.323414
2022-11-24T02:22:26.912Z,51.323391
2022-11-24T02:23:26.893Z,51.323410
2022-11-24T02:24:26.902Z,51.323372
2022-11-24T02:25:26.854Z,51.323399
2022-11-24T02:26:26.832Z,51.323399
2022-11-24T02:27:26.815Z,51.323402
2022-11-24T02:28:26.799Z,51.323429
2022-11-24T02:29:26.806Z,51.323406
2022-11-24T02:30:26.761Z,51.323425
2022-11-24T02:31:26.785Z,51.323414
2022-11-24T02:32:26.723Z,51.323402
2022-11-24T02:33:26.705Z,51.323399
2022-11-24T02:34:26.691Z,51.323391
2022-11-24T02:35:26.693Z,51.323380
2022-11-24T02:36:26.651Z,51.323395
2022-11-24T02:37:26.626Z,51.323391
2022-11-24T02:38:26.643Z,51.323402
2022-11-24T02:39:26.619Z,51.323406
2022-11-24T02:40:26.568Z,51.323395
2022-11-24T02:41:26.551Z,51.323406
2022-11-24T02:42:26.529Z,51.323421
2022-11-24T02:43:26.514Z,51.323433
2022-11-24T02:44:26.534Z,51.323414
2022-11-24T02:45:26.510Z,51.323425
2022-11-24T02:46:26.511Z,51.323418
2022-11-24T02:47:26.438Z,51.323418
2022-11-24T02:48:26.436Z,51.323414
2022-11-24T02:49:26.395Z,51.323418
2022-11-24T02:50:26.405Z,51.323421
2022-11-24T02:51:26.365Z,51.323414
2022-11-24T02:52:26.341Z,51.323414
2022-11-24T02:53:26.327Z,51.323437
2022-11-24T02:54:26.305Z,51.323418
2022-11-24T02:55:26.310Z,51.323406
2022-11-24T02:56:26.265Z,51.323399
2022-11-24T02:57:26.244Z,51.323425
2022-11-24T02:58:26.242Z,51.323425
2022-11-24T02:59:26.209Z,51.323410
2022-11-24T03:00:26.214Z,51.323402
2022-11-24T03:01:26.231Z,51.323395
2022-11-24T03:02:26.199Z,51.323410
2022-11-24T03:03:26.140Z,51.323425
2022-11-24T03:04:26.126Z,51.323425
2022-11-24T03:05:26.125Z,51.323441
2022-11-24T03:06:26.082Z,51.323410
2022-11-24T03:07:26.133Z,51.323395
2022-11-24T03:08:26.046Z,51.323391
2022-11-24T03:09:26.034Z,51.323410
2022-11-24T03:10:26.053Z,51.323410
2022-11-24T03:11:25.986Z,51.323414
2022-11-24T03:12:25.973Z,51.323418
2022-11-24T03:13:25.948Z,51.323391
2022-11-24T03:14:25.933Z,51.323429
2022-11-24T03:15:25.942Z,51.323410
2022-11-24T03:16:25.911Z,51.323406
2022-11-24T03:17:25.877Z,51.323357
2022-11-24T03:18:25.852Z,51.323395
2022-11-24T03:19:25.838Z,51.323399
2022-11-24T03:20:25.846Z,51.323425
2022-11-24T03:21:25.798Z,51.323402
2022-11-24T03:22:25.778Z,51.323429
2022-11-24T03:23:25.867Z,51.323437
2022-11-24T03:24:25.741Z,51.323429
2022-11-24T03:25:25.756Z,51.323483
2022-11-24T03:26:25.713Z,51.323494
2022-11-24T03:27:25.685Z,51.323429
2022-11-24T03:28:25.662Z,51.323406
2022-11-24T03:29:25.652Z,51.323410
2022-11-24T03:30:25.655Z,51.323418
2022-11-24T03:31:25.660Z,51.323402
2022-11-24T03:32:25.597Z,51.323410
2022-11-24T03:33:25.585Z,51.323444
2022-11-24T03:34:25.555Z,51.323452
2022-11-24T03:35:25.568Z,51.323421
2022-11-24T03:36:25.517Z,51.323364
2022-11-24T03:37:25.585Z,51.323380
2022-11-24T03:38:25.483Z,51.323383
2022-11-24T03:39:25.489Z,51.323399
2022-11-24T03:40:25.467Z,51.323387
2022-11-24T03:41:25.429Z,51.323414
2022-11-24T03:42:25.434Z,51.323406
2022-11-24T03:43:25.394Z,51.323414
2022-11-24T03:44:25.384Z,51.323429
2022-11-24T03:46:27.377Z,51.323505
2022-11-24T03:47:25.335Z,51.323421
2022-11-24T03:48:25.297Z,51.323360
2022-11-24T03:49:25.278Z,51.323387
2022-11-24T03:50:25.283Z,51.323402
2022-11-24T03:51:25.238Z,51.323372
2022-11-24T03:52:25.222Z,51.323391
2022-11-24T03:53:25.203Z,51.323376
2022-11-24T03:54:25.182Z,51.323364
2022-11-24T03:55:25.189Z,51.323391
2022-11-24T03:56:25.145Z,51.323414
2022-11-24T03:57:25.133Z,51.323395
2022-11-24T03:58:25.098Z,51.323387
2022-11-24T03:59:26.090Z,51.323448
2022-11-24T04:00:25.097Z,51.323406
2022-11-24T04:01:25.130Z,51.323399
2022-11-24T04:02:25.075Z,51.323391
2022-11-24T04:03:25.008Z,51.323387
2022-11-24T04:04:25.002Z,51.323380
2022-11-24T04:05:25.000Z,51.323391
2022-11-24T04:06:24.958Z,51.323383
2022-11-24T04:07:24.969Z,51.323395
2022-11-24T04:08:24.927Z,51.323410
2022-11-24T04:09:24.902Z,51.323380
2022-11-24T04:10:24.907Z,51.323418
2022-11-24T04:11:24.867Z,51.323383
2022-11-24T04:12:24.863Z,51.323410
2022-11-24T04:13:24.837Z,51.323402
2022-11-24T04:14:24.808Z,51.323399
2022-11-24T04:15:24.837Z,51.323414
2022-11-24T04:16:24.816Z,51.323421
2022-11-24T04:17:24.755Z,51.323421
2022-11-24T04:18:24.730Z,51.323418
2022-11-24T04:19:24.713Z,51.323414
2022-11-24T04:20:24.730Z,51.323421
2022-11-24T04:21:24.675Z,51.323448
2022-11-24T04:22:24.658Z,51.323441
2022-11-24T04:23:24.650Z,51.323414
2022-11-24T04:24:24.629Z,51.323441
2022-11-24T04:25:24.628Z,51.323414
2022-11-24T04:26:24.587Z,51.323402
2022-11-24T04:27:25.559Z,51.323414
2022-11-24T04:28:24.545Z,51.323406
2022-11-24T04:29:24.534Z,51.323414
2022-11-24T04:30:24.535Z,51.323395
2022-11-24T04:31:24.536Z,51.323418
2022-11-24T04:32:24.463Z,51.323414
2022-11-24T04:33:24.461Z,51.323402
2022-11-24T04:34:24.425Z,51.323418
2022-11-24T04:35:24.437Z,51.323418
2022-11-24T04:36:24.387Z,51.323429
2022-11-24T04:37:24.368Z,51.323429
2022-11-24T04:39:23.026Z,51.323433
2022-11-24T04:39:28.512Z,51.323437
2022-11-24T04:40:25.339Z,51.323421
2022-11-24T04:41:24.299Z,51.323437
2022-11-24T04:42:24.277Z,51.323425
2022-11-24T04:43:24.260Z,51.323441
2022-11-24T04:44:24.247Z,51.323444
2022-11-24T04:45:24.253Z,51.323425
2022-11-24T04:46:24.252Z,51.323376
2022-11-24T04:47:24.188Z,51.323421
2022-11-24T04:48:24.166Z,51.323410
2022-11-24T04:49:24.146Z,51.323406
2022-11-24T04:50:24.155Z,51.323410
2022-11-24T04:51:24.101Z,51.323414
2022-11-24T04:52:25.099Z,51.323418
2022-11-24T04:53:24.084Z,51.323414
2022-11-24T04:54:24.083Z,51.323410
2022-11-24T04:55:24.071Z,51.323421
2022-11-24T04:56:24.020Z,51.323437
2022-11-24T04:57:24.028Z,51.323460
2022-11-24T04:58:23.985Z,51.323444
2022-11-24T04:59:23.966Z,51.323406
2022-11-24T05:00:23.973Z,51.323418
2022-11-24T05:01:23.933Z,51.323425
2022-11-24T05:02:23.919Z,51.323410
2022-11-24T05:03:23.894Z,51.323395
2022-11-24T05:04:23.939Z,51.323402
2022-11-24T05:05:23.890Z,51.323429
2022-11-24T05:06:23.837Z,51.323444
2022-11-24T05:07:23.855Z,51.323448
2022-11-24T05:08:23.797Z,51.323448
2022-11-24T05:09:32.614Z,51.323437
2022-11-24T05:10:24.767Z,51.323479
2022-11-24T05:11:23.743Z,51.323421
2022-11-24T05:12:23.729Z,51.323429
2022-11-24T05:13:23.707Z,51.323444
2022-11-24T05:14:23.716Z,51.323421
2022-11-24T05:15:23.700Z,51.323433
2022-11-24T05:16:23.699Z,51.323441
2022-11-24T05:17:23.637Z,51.323425
2022-11-24T05:18:23.633Z,51.323429
2022-11-24T05:19:26.260Z,51.323441
2022-11-24T05:20:23.615Z,51.323444
2022-11-24T05:21:23.573Z,51.323441
2022-11-24T05:22:23.553Z,51.323452
2022-11-24T05:23:23.526Z,51.323425
2022-11-24T05:24:23.512Z,51.323456
2022-11-24T05:25:23.516Z,51.323490
2022-11-24T05:26:23.469Z,51.323463
2022-11-24T05:27:23.455Z,51.323425
2022-11-24T05:28:23.437Z,51.323418
2022-11-24T05:29:23.487Z,51.323433
2022-11-24T05:30:23.448Z,51.323441
2022-11-24T05:31:23.452Z,51.323463
2022-11-24T05:32:23.365Z,51.323463
2022-11-24T05:33:23.347Z,51.323448
2022-11-24T05:34:23.328Z,51.323448
2022-11-24T05:35:23.333Z,51.323444
2022-11-24T05:36:23.327Z,51.323456
2022-11-24T05:37:23.272Z,51.323471
2022-11-24T05:38:23.268Z,51.323463
2022-11-24T05:39:23.349Z,51.323463
2022-11-24T05:40:23.255Z,51.323452
2022-11-24T05:41:23.206Z,51.323456
2022-11-24T05:42:23.195Z,51.323448
2022-11-24T05:43:23.188Z,51.323441
2022-11-24T05:44:23.143Z,51.323448
2022-11-24T05:45:23.147Z,51.323441
2022-11-24T05:46:23.192Z,51.323467
2022-11-24T05:47:23.089Z,51.323441
2022-11-24T05:48:23.085Z,51.323433
2022-11-24T05:49:23.049Z,51.323433
2022-11-24T05:50:23.076Z,51.323441
2022-11-24T05:51:23.036Z,51.323460
2022-11-24T05:52:23.003Z,51.323475
2022-11-24T05:53:22.980Z,51.323437
2022-11-24T05:54:22.958Z,51.323421
2022-11-24T05:55:22.965Z,51.323448
2022-11-24T05:56:23.013Z,51.323444
2022-11-24T05:57:22.903Z,51.323490
2022-11-24T05:58:22.907Z,51.323456
2022-11-24T05:59:22.877Z,51.323421
2022-11-24T06:00:22.878Z,51.323425
2022-11-24T06:01:22.846Z,51.323421
2022-11-24T06:02:22.894Z,51.323429
2022-11-24T06:03:22.792Z,51.323437
2022-11-24T06:04:22.776Z,51.323429
2022-11-24T06:05:22.785Z,51.323448
2022-11-24T06:06:22.736Z,51.323425
2022-11-24T06:07:22.822Z,51.323425
2022-11-24T06:08:25.598Z,51.323433
2022-11-24T06:09:23.680Z,51.323418
2022-11-24T06:10:22.694Z,51.323433
2022-11-24T06:11:22.641Z,51.323452
2022-11-24T06:12:22.629Z,51.323433
2022-11-24T06:13:22.648Z,51.323429
2022-11-24T06:14:22.591Z,51.323410
2022-11-24T06:15:22.623Z,51.323425
2022-11-24T06:16:22.568Z,51.323444
2022-11-24T06:17:22.553Z,51.323448
2022-11-24T06:18:22.513Z,51.323463
2022-11-24T06:19:22.491Z,51.323433
2022-11-24T06:20:22.475Z,51.323421
2022-11-24T06:21:22.478Z,51.323380
2022-11-24T06:22:22.431Z,51.323418
2022-11-24T06:23:22.416Z,51.323429
2022-11-24T06:24:22.410Z,51.323433
2022-11-24T06:25:22.406Z,51.323444
2022-11-24T06:26:22.362Z,51.323460
2022-11-24T06:27:22.341Z,51.323441
2022-11-24T06:28:22.317Z,51.323418
2022-11-24T06:29:22.300Z,51.323421
2022-11-24T06:30:22.313Z,51.323429
2022-11-24T06:31:22.301Z,51.323452
2022-11-24T06:32:22.248Z,51.323452
2022-11-24T06:33:22.239Z,51.323456
2022-11-24T06:34:22.223Z,51.323456
2022-11-24T06:35:22.230Z,51.323448
2022-11-24T06:36:22.201Z,51.323452
2022-11-24T06:37:22.152Z,51.323448
2022-11-24T06:38:24.383Z,51.323441
2022-11-24T06:39:23.120Z,51.323433
2022-11-24T06:40:22.101Z,51.323421
2022-11-24T06:41:22.120Z,51.323429
2022-11-24T06:42:22.064Z,51.323433
2022-11-24T06:43:22.046Z,51.323448
2022-11-24T06:44:22.026Z,51.323437
2022-11-24T06:45:22.006Z,51.323402
2022-11-24T06:46:22.049Z,51.323429
2022-11-24T06:47:21.980Z,51.323395
2022-11-24T06:48:21.975Z,51.323418
2022-11-24T06:49:21.940Z,51.323448
2022-11-24T06:50:21.932Z,51.323433
2022-11-24T06:51:21.921Z,51.323437
2022-11-24T06:52:21.873Z,51.323391
2022-11-24T06:53:21.853Z,51.323368
2022-11-24T06:54:21.850Z,51.323441
2022-11-24T06:55:21.815Z,51.323402
2022-11-24T06:56:21.824Z,51.323364
2022-11-24T06:57:21.781Z,51.323406
2022-11-24T06:58:21.757Z,51.323383
2022-11-24T06:59:21.747Z,51.323410
2022-11-24T07:00:21.723Z,51.323353
2022-11-24T07:01:21.762Z,51.323341
2022-11-24T07:02:21.692Z,51.323380
2022-11-24T07:03:21.757Z,51.323383
2022-11-24T07:04:21.646Z,51.323353
2022-11-24T07:05:21.667Z,51.323341
2022-11-24T07:06:21.638Z,51.323399
2022-11-24T07:07:21.649Z,51.323433
2022-11-24T07:08:21.572Z,51.323425
2022-11-24T07:09:21.583Z,51.323364
2022-11-24T07:10:21.538Z,51.323383
2022-11-24T07:11:21.557Z,51.323372
2022-11-24T07:12:21.514Z,51.323383
2022-11-24T07:13:21.525Z,51.323399
2022-11-24T07:14:21.498Z,51.323391
2022-11-24T07:15:21.469Z,51.323433
2022-11-24T07:16:21.516Z,51.323429
2022-11-24T07:17:21.414Z,51.323452
2022-11-24T07:18:21.398Z,51.323433
2022-11-24T07:19:24.874Z,51.323391
2022-11-24T07:20:22.358Z,51.323387
2022-11-24T07:21:21.384Z,51.323372
2022-11-24T07:22:21.343Z,51.323421
2022-11-24T07:23:21.311Z,51.323418
2022-11-24T07:24:21.311Z,51.323387
2022-11-24T07:25:21.266Z,51.323448
2022-11-24T07:26:21.288Z,51.323441
2022-11-24T07:27:21.249Z,51.323437
2022-11-24T07:28:21.218Z,51.323479
2022-11-24T07:29:21.204Z,51.323452
2022-11-24T07:30:21.188Z,51.323460
2022-11-24T07:31:21.227Z,51.323418
2022-11-24T07:32:21.181Z,51.323460
2022-11-24T07:33:22.138Z,51.323444
2022-11-24T07:34:21.112Z,51.323444
2022-11-24T07:35:21.090Z,51.323425
2022-11-24T07:36:21.089Z,51.323406
2022-11-24T07:37:21.061Z,51.323410
2022-11-24T07:38:21.026Z,51.323410
2022-11-24T07:39:21.020Z,51.323399
2022-11-24T07:40:20.989Z,51.323437
2022-11-24T07:41:21.001Z,51.323383
2022-11-24T07:42:20.954Z,51.323475
2022-11-24T07:43:20.953Z,51.323421
2022-11-24T07:44:20.920Z,51.323402
2022-11-24T07:45:20.898Z,51.323410
2022-11-24T07:46:20.984Z,51.323502
2022-11-24T07:47:20.878Z,51.323479
2022-11-24T07:48:20.844Z,51.323418
2022-11-24T07:49:20.818Z,51.323429
2022-11-24T07:50:20.805Z,51.323483
2022-11-24T07:51:20.804Z,51.323483
2022-11-24T07:52:20.765Z,51.323380
2022-11-24T07:53:20.751Z,51.323353
2022-11-24T07:54:20.742Z,51.323406
2022-11-24T07:55:20.726Z,51.323437
2022-11-24T07:56:20.719Z,51.323433
2022-11-24T07:57:20.688Z,51.323402
2022-11-24T07:58:20.670Z,51.323448
2022-11-24T07:59:20.690Z,51.323429
2022-11-24T08:00:20.622Z,51.323452
2022-11-24T08:01:20.678Z,51.323414
2022-11-24T08:02:20.591Z,51.323406
2022-11-24T08:03:20.607Z,51.323406
2022-11-24T08:04:20.551Z,51.323421
2022-11-24T08:05:20.559Z,51.323391
2022-11-24T08:06:27.205Z,51.323448
2022-11-24T08:07:22.636Z,51.323429
2022-11-24T08:08:20.495Z,51.323402
2022-11-24T08:09:20.460Z,51.323402
2022-11-24T08:10:20.451Z,51.323410
2022-11-24T08:11:20.461Z,51.323410
2022-11-24T08:12:20.411Z,51.323387
2022-11-24T08:13:20.423Z,51.323406
2022-11-24T08:14:20.374Z,51.323421
2022-11-24T08:15:20.364Z,51.323410
2022-11-24T08:16:20.454Z,51.323406
2022-11-24T08:17:20.320Z,51.323395
2022-11-24T08:18:20.304Z,51.323414
2022-11-24T08:19:20.284Z,51.323418
2022-11-24T08:20:20.263Z,51.323421
2022-11-24T08:21:20.269Z,51.323406
2022-11-24T08:22:20.256Z,51.323425
2022-11-24T08:23:20.242Z,51.323425
2022-11-24T08:24:20.202Z,51.323414
2022-11-24T08:25:20.189Z,51.323395
2022-11-24T08:26:20.211Z,51.323414
2022-11-24T08:27:20.152Z,51.323387
2022-11-24T08:28:20.121Z,51.323376
2022-11-24T08:29:20.110Z,51.323399
2022-11-24T08:30:20.107Z,51.323418
2022-11-24T08:31:20.239Z,51.323402
2022-11-24T08:32:22.454Z,51.323418
2022-11-24T08:33:21.038Z,51.323418
2022-11-24T08:34:20.100Z,51.323414
2022-11-24T08:35:19.997Z,51.323421
2022-11-24T08:36:20.008Z,51.323421
2022-11-24T08:37:19.991Z,51.323402
2022-11-24T08:38:19.939Z,51.323402
2022-11-24T08:39:19.988Z,51.323410
2022-11-24T08:40:19.905Z,51.323399
2022-11-24T08:41:19.910Z,51.323357
2022-11-24T08:42:19.864Z,51.323414
2022-11-24T08:43:19.855Z,51.323406
2022-11-24T08:44:19.830Z,51.323429
2022-11-24T08:45:21.401Z,51.323429
2022-11-24T08:46:20.841Z,51.323406
2022-11-24T08:47:19.780Z,51.323372
2022-11-24T08:48:19.759Z,51.323383
2022-11-24T08:49:19.750Z,51.323433
2022-11-24T08:50:19.725Z,51.323429
2022-11-24T08:51:19.748Z,51.323433
2022-11-24T08:52:19.699Z,51.323425
2022-11-24T08:53:19.680Z,51.323399
2022-11-24T08:54:19.760Z,51.323414
2022-11-24T08:55:19.642Z,51.323425
2022-11-24T08:56:19.666Z,51.323395
2022-11-24T08:57:21.947Z,51.323357
2022-11-24T08:58:20.580Z,51.323330
2022-11-24T08:59:19.622Z,51.323372
2022-11-24T09:00:19.712Z,51.323410
2022-11-24T09:01:20.884Z,51.323410
2022-11-24T09:02:20.541Z,51.323414
2022-11-24T09:03:19.535Z,51.323406
2022-11-24T09:04:19.641Z,51.323414
2022-11-24T09:05:50.144Z,51.323414
2022-11-24T09:06:21.501Z,51.323410
2022-11-24T09:07:19.427Z,51.323425
2022-11-24T09:08:19.403Z,51.323425
2022-11-24T09:09:19.403Z,51.323448
2022-11-24T09:10:19.369Z,51.323452
2022-11-24T09:11:19.368Z,51.323425
2022-11-24T09:12:19.332Z,51.323456
2022-11-24T09:13:19.312Z,51.323444
2022-11-24T09:14:19.308Z,51.323410
2022-11-24T09:15:19.276Z,51.323437
2022-11-24T09:16:19.399Z,51.323421
2022-11-24T09:17:19.240Z,51.323437
2022-11-24T09:18:19.261Z,51.323425
2022-11-24T09:19:19.200Z,51.323429
2022-11-24T09:20:19.178Z,51.323444
2022-11-24T09:21:19.193Z,51.323421
2022-11-24T09:22:19.161Z,51.323418
2022-11-24T09:23:19.147Z,51.323410
2022-11-24T09:24:19.110Z,51.323391
2022-11-24T09:25:19.104Z,51.323433
2022-11-24T09:26:19.099Z,51.323452
2022-11-24T09:27:19.078Z,51.323437
2022-11-24T09:28:19.037Z,51.323414
2022-11-24T09:29:19.015Z,51.323421
2022-11-24T09:30:19.004Z,51.323433
2022-11-24T09:31:19.108Z,51.323418
2022-11-24T09:32:18.959Z,51.323391
2022-11-24T09:33:18.943Z,51.323414
2022-11-24T09:34:18.927Z,51.323406
2022-11-24T09:35:18.923Z,51.323421
2022-11-24T09:36:18.918Z,51.323444
2022-11-24T09:37:18.872Z,51.323421
2022-11-24T09:38:18.853Z,51.323490
2022-11-24T09:39:18.839Z,51.323437
2022-11-24T09:40:18.827Z,51.323479
2022-11-24T09:41:18.839Z,51.323429
2022-11-24T09:42:19.326Z,51.323399
2022-11-24T09:43:18.770Z,51.323425
2022-11-24T09:44:18.755Z,51.323456
2022-11-24T09:45:35.416Z,51.323414
2022-11-24T09:46:20.783Z,51.323441
2022-11-24T09:47:18.718Z,51.323421
2022-11-24T09:48:18.684Z,51.323452
2022-11-24T09:49:18.683Z,51.323395
2022-11-24T09:50:18.647Z,51.323410
2022-11-24T09:51:18.630Z,51.323399
2022-11-24T09:52:18.639Z,51.323406
2022-11-24T09:53:18.605Z,51.323414
2022-11-24T09:54:18.576Z,51.323410
2022-11-24T09:55:18.567Z,51.323391
2022-11-24T09:56:18.546Z,51.323418
2022-11-24T09:57:18.561Z,51.323406
2022-11-24T09:58:18.524Z,51.323452
2022-11-24T09:59:18.517Z,51.323437
2022-11-24T10:00:18.513Z,51.323452
2022-11-24T10:01:18.522Z,51.323463
2022-11-24T10:02:18.471Z,51.323425
2022-11-24T10:03:18.427Z,51.323399
2022-11-24T10:04:18.457Z,51.323429
2022-11-24T10:05:18.388Z,51.323425
2022-11-24T10:06:18.379Z,51.323421
2022-11-24T10:07:18.611Z,51.323433
2022-11-24T10:08:18.342Z,51.323421
2022-11-24T10:09:18.321Z,51.323425
2022-11-24T10:10:24.310Z,51.323467
2022-11-24T10:11:20.283Z,51.323475
2022-11-24T10:12:18.297Z,51.323452
2022-11-24T10:13:18.249Z,51.323463
2022-11-24T10:14:18.246Z,51.323483
2022-11-24T10:15:18.218Z,51.323456
2022-11-24T10:16:18.245Z,51.323486
2022-11-24T10:17:18.204Z,51.323437
2022-11-24T10:18:18.168Z,51.323448
2022-11-24T10:19:18.143Z,51.323437
2022-11-24T10:20:18.214Z,51.323460
2022-11-24T10:21:18.103Z,51.323437
2022-11-24T10:22:19.117Z,51.323448
2022-11-24T10:23:18.074Z,51.323456
2022-11-24T10:24:18.049Z,51.323437
2022-11-24T10:25:18.037Z,51.323444
2022-11-24T10:26:18.018Z,51.323414
2022-11-24T10:27:18.028Z,51.323448
2022-11-24T10:28:18.008Z,51.323441
2022-11-24T10:29:17.963Z,51.323414
2022-11-24T10:30:18.001Z,51.323437
2022-11-24T10:31:18.038Z,51.323441
2022-11-24T10:32:17.904Z,51.323463
2022-11-24T10:33:17.919Z,51.323437
2022-11-24T10:34:17.869Z,51.323460
2022-11-24T10:35:17.858Z,51.323471
2022-11-24T10:36:17.833Z,51.323490
2022-11-24T10:37:17.837Z,51.323490
2022-11-24T10:38:17.795Z,51.323498
2022-11-24T10:39:17.772Z,51.323448
2022-11-24T10:40:55.872Z,51.323475
2022-11-24T10:41:19.739Z,51.323452
2022-11-24T10:42:17.758Z,51.323463
2022-11-24T10:43:17.704Z,51.323444
2022-11-24T10:44:17.733Z,51.323521
2022-11-24T10:45:17.669Z,51.323498
2022-11-24T10:46:17.670Z,51.323467
2022-11-24T10:47:17.645Z,51.323494
2022-11-24T10:48:17.623Z,51.323483
2022-11-24T10:49:17.579Z,51.323498
2022-11-24T10:50:17.557Z,51.323494
2022-11-24T10:51:17.538Z,51.323494
2022-11-24T10:52:17.522Z,51.323483
2022-11-24T10:53:17.527Z,51.323483
2022-11-24T10:54:17.475Z,51.323521
2022-11-24T10:55:17.454Z,51.323494
2022-11-24T10:56:17.443Z,51.323486
2022-11-24T10:57:17.446Z,51.323483
2022-11-24T10:58:17.422Z,51.323479
2022-11-24T10:59:17.433Z,51.323475
2022-11-24T11:00:17.360Z,51.323494
2022-11-24T11:01:17.397Z,51.323540
2022-11-24T11:02:17.413Z,51.323486
2022-11-24T11:03:17.300Z,51.323483
2022-11-24T11:04:17.282Z,51.323483
2022-11-24T11:05:17.265Z,51.323452
2022-11-24T11:06:17.280Z,51.323486
2022-11-24T11:07:17.281Z,51.323483
2022-11-24T11:08:17.214Z,51.323479
2022-11-24T11:09:17.195Z,51.323441
2022-11-24T11:10:17.167Z,51.323418
2022-11-24T11:11:17.221Z,51.323421
2022-11-24T11:12:45.817Z,51.323433
2022-11-24T11:13:19.112Z,51.323467
2022-11-24T11:14:17.101Z,51.323437
2022-11-24T11:15:17.070Z,51.323460
2022-11-24T11:16:17.208Z,51.323441
2022-11-24T11:17:17.056Z,51.323471
2022-11-24T11:18:17.024Z,51.323456
2022-11-24T11:19:47.201Z,51.323460
2022-11-24T11:20:18.993Z,51.323429
2022-11-24T11:21:17.024Z,51.323418
2022-11-24T11:22:16.969Z,51.323421
2022-11-24T11:23:16.911Z,51.323433
2022-11-24T11:24:16.895Z,51.323475
2022-11-24T11:25:16.891Z,51.323441